Time;durP1;ratioP1;P1;durP2;ratioP2;P2;SDS_P1;SDS_P2;PMS_P1;PMS_P2;Temp;Humidity;BMP_temperature;BMP_pressure;BME280_temperature;BME280_humidity;BME280_pressure;Samples;Min_cycle;Max_cycle;Signal;HPM_P1;HPM_P2
2021/10/11 00:00:13;;;;;;;;;;;;;;;4.42;71.68;97365.91;5072060;28;19999;-79
2021/10/11 00:02:40;;;;;;;;;;;;;;;4.39;71.45;97358.44;5073334;28;20423;-79
2021/10/11 00:05:06;;;;;;;;;;;;;;;4.38;71.45;97346.41;5075112;28;19960;-79
2021/10/11 00:07:32;;;;;;;;;;;;;;;4.38;71.60;97356.00;5077317;28;19964;-80
2021/10/11 00:09:58;;;;;;;;;;;;;;;4.36;71.22;97352.75;5077809;28;19997;-79
2021/10/11 00:12:24;;;;;;;;;;;;;;;4.35;71.56;97348.53;5077141;28;19969;-80
2021/10/11 00:14:53;;;;;;;;;;;;;;;4.32;71.88;97344.44;5077239;28;19951;-78
2021/10/11 00:17:19;;;;;;;;;;;;;;;4.29;72.27;97342.19;5077403;28;19962;-79
2021/10/11 00:19:47;;;;;;;;;;;;;;;4.26;72.51;97342.47;5077188;28;19956;-79
2021/10/11 00:22:12;;;;;;;;;;;;;;;4.22;72.17;97341.16;5077025;28;19969;-78
2021/10/11 00:24:38;;;;;;;;;;;;;;;4.20;71.94;97346.53;5077417;28;19962;-78
2021/10/11 00:27:04;;;;;;;;;;;;;;;4.18;71.43;97352.81;5075820;28;20032;-78
2021/10/11 00:29:30;;;;;;;;;;;;;;;4.17;71.18;97348.59;5077172;28;19991;-76
2021/10/11 00:31:56;;;;;;;;;;;;;;;4.17;71.33;97359.81;5076874;28;19971;-77
2021/10/11 00:34:22;;;;;;;;;;;;;;;4.17;71.31;97366.78;5075953;28;19958;-77
2021/10/11 00:36:48;;;;;;;;;;;;;;;4.16;71.44;97362.53;5076726;28;20444;-77
2021/10/11 00:39:14;;;;;;;;;;;;;;;4.15;71.44;97379.91;5075587;28;19950;-79
2021/10/11 00:41:39;;;;;;;;;;;;;;;4.10;71.73;97370.97;5076900;28;19962;-77
2021/10/11 00:44:05;;;;;;;;;;;;;;;4.06;71.48;97375.66;5076656;28;20443;-78
2021/10/11 00:46:31;;;;;;;;;;;;;;;4.04;71.31;97375.00;5076484;28;20048;-77
2021/10/11 00:49:00;;;;;;;;;;;;;;;4.02;71.69;97379.53;5076597;28;19954;-76
2021/10/11 00:51:26;;;;;;;;;;;;;;;4.00;71.40;97373.66;5076329;28;19972;-76
2021/10/11 00:53:52;;;;;;;;;;;;;;;3.98;71.31;97366.03;5076530;28;20320;-76
2021/10/11 00:56:18;;;;;;;;;;;;;;;3.97;71.29;97359.22;5076796;28;19952;-77
2021/10/11 00:58:43;;;;;;;;;;;;;;;3.98;71.38;97360.03;5075183;28;19953;-78
2021/10/11 01:01:09;;;;;;;;;;;;;;;3.97;71.48;97364.41;5076761;28;19952;-78
2021/10/11 01:03:37;;;;;;;;;;;;;;;3.95;71.23;97355.97;5076168;28;19957;-78
2021/10/11 01:06:04;;;;;;;;;;;;;;;3.92;71.26;97351.06;5076275;28;20358;-77
2021/10/11 01:08:30;;;;;;;;;;;;;;;3.90;71.49;97355.59;5076755;28;19955;-78
2021/10/11 01:10:56;;;;;;;;;;;;;;;3.90;71.25;97357.38;5076096;28;19955;-78
2021/10/11 01:13:22;;;;;;;;;;;;;;;3.87;71.56;97355.91;5074856;28;20369;-77
2021/10/11 01:15:48;;;;;;;;;;;;;;;3.82;71.70;97351.19;5075695;28;19952;-78
2021/10/11 01:18:14;;;;;;;;;;;;;;;3.82;72.27;97365.91;5076031;28;20021;-75
2021/10/11 01:20:40;;;;;;;;;;;;;;;3.76;74.58;97353.56;5076576;28;19965;-80
2021/10/11 01:23:06;;;;;;;;;;;;;;;3.69;74.16;97347.34;5076176;28;19974;-77
2021/10/11 01:25:32;;;;;;;;;;;;;;;3.65;73.61;97337.28;5076115;28;19962;-77
2021/10/11 01:27:58;;;;;;;;;;;;;;;3.66;73.17;97338.09;5076004;28;20002;-79
2021/10/11 01:30:23;;;;;;;;;;;;;;;3.66;73.16;97331.13;5075876;28;20322;-79
2021/10/11 01:32:49;;;;;;;;;;;;;;;3.66;73.39;97331.13;5076315;28;20066;-80
2021/10/11 01:35:16;;;;;;;;;;;;;;;3.63;74.12;97331.44;5076081;28;19981;-77
2021/10/11 01:37:42;;;;;;;;;;;;;;;3.61;74.14;97335.13;5075637;28;19954;-80
2021/10/11 01:40:08;;;;;;;;;;;;;;;3.59;73.16;97337.91;5075706;28;20433;-81
2021/10/11 01:42:35;;;;;;;;;;;;;;;3.59;72.93;97324.94;5075725;28;20392;-80
2021/10/11 01:45:01;;;;;;;;;;;;;;;3.60;73.05;97336.13;5075687;28;19952;-79
2021/10/11 01:47:27;;;;;;;;;;;;;;;3.58;72.86;97333.66;5075426;28;20401;-80
2021/10/11 01:49:53;;;;;;;;;;;;;;;3.59;72.75;97329.28;5076303;28;20052;-82
2021/10/11 01:52:19;;;;;;;;;;;;;;;3.60;72.63;97336.13;5075482;28;19970;-79
2021/10/11 01:54:45;;;;;;;;;;;;;;;3.57;72.63;97337.25;5075932;28;19964;-78
2021/10/11 01:57:12;;;;;;;;;;;;;;;3.57;72.32;97332.06;5075407;28;20052;-78
2021/10/11 01:59:38;;;;;;;;;;;;;;;3.56;72.35;97338.19;5075642;28;20297;-81
2021/10/11 02:02:04;;;;;;;;;;;;;;;3.56;72.43;97340.78;5075241;28;19960;-81
2021/10/11 02:04:30;;;;;;;;;;;;;;;3.53;72.48;97332.47;5075340;28;19948;-81
2021/10/11 02:06:56;;;;;;;;;;;;;;;3.51;72.48;97329.22;5075487;28;19958;-79
2021/10/11 02:09:23;;;;;;;;;;;;;;;3.47;72.82;97325.34;5075189;28;20306;-79
2021/10/11 02:11:49;;;;;;;;;;;;;;;3.43;72.85;97324.81;5075011;28;19966;-78
2021/10/11 02:14:15;;;;;;;;;;;;;;;3.39;72.57;97315.72;5075118;28;20427;-78
2021/10/11 02:16:41;;;;;;;;;;;;;;;3.38;72.67;97321.84;5075012;28;20322;-78
2021/10/11 02:19:06;;;;;;;;;;;;;;;3.36;72.68;97303.88;5075463;28;19983;-78
2021/10/11 02:21:32;;;;;;;;;;;;;;;3.35;72.48;97301.41;5075094;28;20011;-78
2021/10/11 02:23:58;;;;;;;;;;;;;;;3.34;72.38;97292.84;5074705;28;19952;-78
2021/10/11 02:26:24;;;;;;;;;;;;;;;3.33;72.77;97296.38;5074973;28;19994;-78
2021/10/11 02:28:51;;;;;;;;;;;;;;;3.35;73.15;97304.00;5073659;28;19977;-78
2021/10/11 02:31:19;;;;;;;;;;;;;;;3.34;73.11;97304.94;5074907;28;19962;-78
2021/10/11 02:33:45;;;;;;;;;;;;;;;3.34;73.96;97300.59;5074864;28;20336;-77
2021/10/11 02:36:12;;;;;;;;;;;;;;;3.34;73.78;97304.94;5074681;28;19955;-77
2021/10/11 02:38:38;;;;;;;;;;;;;;;3.33;73.49;97296.38;5074385;28;19960;-78
2021/10/11 02:41:04;;;;;;;;;;;;;;;3.34;73.46;97303.19;5074407;28;19958;-77
2021/10/11 02:43:30;;;;;;;;;;;;;;;3.35;73.31;97291.03;5074516;28;19951;-77
2021/10/11 02:45:56;;;;;;;;;;;;;;;3.35;73.48;97291.84;5074895;28;19954;-78
2021/10/11 02:48:22;;;;;;;;;;;;;;;3.35;73.58;97291.03;5074267;28;19956;-78
2021/10/11 02:50:48;;;;;;;;;;;;;;;3.32;73.29;97292.16;5074088;28;20422;-78
2021/10/11 02:53:15;;;;;;;;;;;;;;;3.32;73.24;97305.13;5074065;28;19974;-78
2021/10/11 02:55:41;;;;;;;;;;;;;;;3.29;73.53;97302.81;5074317;28;19965;-78
2021/10/11 02:58:07;;;;;;;;;;;;;;;3.26;73.47;97303.13;5074066;28;19960;-77
2021/10/11 03:00:33;;;;;;;;;;;;;;;3.23;72.97;97301.66;5074158;28;20446;-78
2021/10/11 03:02:59;;;;;;;;;;;;;;;3.20;73.21;97309.72;5074445;28;19984;-78
2021/10/11 03:05:25;;;;;;;;;;;;;;;3.16;73.11;97310.19;5074064;28;20306;-76
2021/10/11 03:07:51;;;;;;;;;;;;;;;3.12;72.68;97311.44;5072902;28;19960;-77
2021/10/11 03:10:17;;;;;;;;;;;;;;;3.08;72.78;97308.31;5074141;28;19948;-77
2021/10/11 03:12:42;;;;;;;;;;;;;;;3.04;72.54;97302.66;5074206;28;20025;-77
2021/10/11 03:15:09;;;;;;;;;;;;;;;3.02;72.32;97306.31;5073870;28;19945;-77
2021/10/11 03:17:35;;;;;;;;;;;;;;;2.99;72.15;97311.81;5073827;28;19979;-77
2021/10/11 03:20:01;;;;;;;;;;;;;;;2.95;72.21;97300.94;5074305;28;19966;-77
2021/10/11 03:22:27;;;;;;;;;;;;;;;2.95;72.30;97302.72;5073846;28;19964;-78
2021/10/11 03:24:53;;;;;;;;;;;;;;;2.92;72.19;97295.22;5074105;28;20015;-77
2021/10/11 03:27:19;;;;;;;;;;;;;;;2.89;72.04;97288.56;5073946;28;19955;-77
2021/10/11 03:29:45;;;;;;;;;;;;;;;2.88;72.20;97296.47;5073727;28;19947;-77
2021/10/11 03:32:11;;;;;;;;;;;;;;;2.85;72.16;97292.41;5073617;28;19963;-77
2021/10/11 03:34:37;;;;;;;;;;;;;;;2.84;72.06;97296.78;5073589;28;19969;-77
2021/10/11 03:37:03;;;;;;;;;;;;;;;2.81;72.17;97289.31;5073772;28;20003;-77
2021/10/11 03:39:29;;;;;;;;;;;;;;;2.81;72.78;97285.91;5073491;28;20309;-77
2021/10/11 03:41:55;;;;;;;;;;;;;;;2.81;72.87;97278.97;5073657;28;20425;-78
2021/10/11 03:44:21;;;;;;;;;;;;;;;2.81;73.35;97284.16;5072508;28;19954;-78
2021/10/11 03:46:47;;;;;;;;;;;;;;;2.80;73.39;97289.47;5073582;28;19950;-77
2021/10/11 03:49:13;;;;;;;;;;;;;;;2.80;73.02;97285.09;5073298;28;19999;-77
2021/10/11 03:51:39;;;;;;;;;;;;;;;2.81;72.83;97280.72;5073356;28;20025;-77
2021/10/11 03:54:06;;;;;;;;;;;;;;;2.79;73.02;97277.47;5073490;28;19962;-77
2021/10/11 03:56:31;;;;;;;;;;;;;;;2.77;72.87;97276.78;5073467;28;20439;-79
2021/10/11 03:58:57;;;;;;;;;;;;;;;2.74;72.88;97266.75;5073203;28;19950;-78
2021/10/11 04:01:23;;;;;;;;;;;;;;;2.71;73.05;97269.63;5072415;28;20120;-78
2021/10/11 04:03:50;;;;;;;;;;;;;;;2.66;73.42;97279.63;5073377;28;19956;-78
2021/10/11 04:06:17;;;;;;;;;;;;;;;2.61;72.94;97272.28;5073310;28;19967;-78
2021/10/11 04:08:45;;;;;;;;;;;;;;;2.58;73.00;97270.81;5073245;28;19953;-78
2021/10/11 04:13:41;;;;;;;;;;;;;;;2.56;74.34;97274.50;5073451;28;20440;-78
2021/10/11 04:16:07;;;;;;;;;;;;;;;2.55;74.34;97265.91;5073481;28;19995;-78
2021/10/11 04:18:33;;;;;;;;;;;;;;;2.55;74.52;97257.34;5073178;28;20028;-79
2021/10/11 04:21:00;;;;;;;;;;;;;;;2.55;74.11;97259.94;5073029;28;19958;-79
2021/10/11 04:23:26;;;;;;;;;;;;;;;2.53;74.66;97264.44;5073421;28;19964;-79
2021/10/11 04:25:52;;;;;;;;;;;;;;;2.51;74.29;97271.53;5073072;28;19948;-79
2021/10/11 04:28:18;;;;;;;;;;;;;;;2.50;74.14;97267.31;5073534;28;19951;-79
2021/10/11 04:30:44;;;;;;;;;;;;;;;2.50;74.25;97272.50;5073034;28;19946;-79
2021/10/11 04:33:10;;;;;;;;;;;;;;;2.49;73.76;97273.47;5072844;28;19973;-79
2021/10/11 04:35:36;;;;;;;;;;;;;;;2.49;73.47;97276.84;5073090;28;20427;-79
2021/10/11 04:38:02;;;;;;;;;;;;;;;2.48;74.10;97277.84;5072899;28;19958;-79
2021/10/11 04:40:28;;;;;;;;;;;;;;;2.47;74.15;97293.50;5073019;28;19989;-79
2021/10/11 04:42:54;;;;;;;;;;;;;;;2.45;74.42;97288.47;5073318;28;19959;-79
2021/10/11 04:45:26;;;;;;;;;;;;;;;2.46;74.26;97300.47;5072911;28;19952;-79
2021/10/11 04:47:52;;;;;;;;;;;;;;;2.44;74.48;97300.59;5072981;28;19944;-79
2021/10/11 04:50:18;;;;;;;;;;;;;;;2.44;74.47;97297.22;5073122;28;19958;-79
2021/10/11 04:52:44;;;;;;;;;;;;;;;2.44;74.23;97297.22;5074041;28;20032;-79
2021/10/11 04:55:10;;;;;;;;;;;;;;;2.44;74.42;97298.00;5076545;28;19961;-79
2021/10/11 04:57:36;;;;;;;;;;;;;;;2.44;74.49;97289.44;5076626;28;19951;-78
2021/10/11 05:00:02;;;;;;;;;;;;;;;2.46;74.19;97297.03;5076720;28;20408;-79
2021/10/11 05:02:28;;;;;;;;;;;;;;;2.45;74.14;97288.47;5076628;28;20315;-79
2021/10/11 05:04:54;;;;;;;;;;;;;;;2.43;73.77;97280.84;5076610;28;19976;-79
2021/10/11 05:07:20;;;;;;;;;;;;;;;2.44;73.79;97285.06;5076214;28;19954;-79
2021/10/11 05:09:46;;;;;;;;;;;;;;;2.43;73.84;97286.00;5075303;28;19949;-79
2021/10/11 05:12:12;;;;;;;;;;;;;;;2.45;73.79;97283.28;5076034;28;20000;-79
2021/10/11 05:14:37;;;;;;;;;;;;;;;2.46;73.49;97289.28;5076519;28;19956;-79
2021/10/11 05:17:03;;;;;;;;;;;;;;;2.47;73.84;97285.75;5076273;28;20000;-79
2021/10/11 05:19:29;;;;;;;;;;;;;;;2.48;74.16;97290.78;5076077;28;19951;-80
2021/10/11 05:21:55;;;;;;;;;;;;;;;2.50;74.28;97293.19;5076195;28;20057;-80
2021/10/11 05:24:23;;;;;;;;;;;;;;;2.51;74.61;97300.03;5075903;28;20502;-79
2021/10/11 05:26:50;;;;;;;;;;;;;;;2.50;74.52;97299.22;5075988;28;20405;-80
2021/10/11 05:29:16;;;;;;;;;;;;;;;2.53;74.98;97308.47;5076010;28;20326;-80
2021/10/11 05:31:42;;;;;;;;;;;;;;;2.54;75.22;97312.66;5076037;28;19946;-80
2021/10/11 05:34:08;;;;;;;;;;;;;;;2.54;75.39;97310.06;5075687;28;19972;-80
2021/10/11 05:36:34;;;;;;;;;;;;;;;2.51;75.09;97312.97;5076034;28;19960;-80
2021/10/11 05:39:01;;;;;;;;;;;;;;;2.49;74.77;97310.53;5075714;28;19953;-80
2021/10/11 05:41:26;;;;;;;;;;;;;;;2.47;74.34;97309.03;5076070;28;20327;-80
2021/10/11 05:43:52;;;;;;;;;;;;;;;2.45;73.96;97293.63;5075627;28;19994;-80
2021/10/11 05:46:18;;;;;;;;;;;;;;;2.47;73.69;97286.53;5075448;28;20325;-78
2021/10/11 05:48:44;;;;;;;;;;;;;;;2.48;73.58;97295.97;5075830;28;19952;-78
2021/10/11 05:51:10;;;;;;;;;;;;;;;2.49;74.35;97294.19;5074364;28;19999;-80
2021/10/11 05:53:36;;;;;;;;;;;;;;;2.49;74.25;97299.34;5075274;28;19977;-80
2021/10/11 05:56:02;;;;;;;;;;;;;;;2.50;74.17;97306.97;5075372;28;19955;-79
2021/10/11 05:58:28;;;;;;;;;;;;;;;2.51;74.25;97308.59;5075397;28;19954;-82
2021/10/11 06:00:53;;;;;;;;;;;;;;;2.54;74.50;97307.47;5075345;28;20399;-82
2021/10/11 06:03:19;;;;;;;;;;;;;;;2.54;75.01;97316.09;5075193;28;20010;-82
2021/10/11 06:05:45;;;;;;;;;;;;;;;2.56;75.37;97316.75;5075119;28;19948;-81
2021/10/11 06:08:11;;;;;;;;;;;;;;;2.57;74.81;97309.81;5073754;28;19949;-80
2021/10/11 06:10:37;;;;;;;;;;;;;;;2.57;75.13;97313.19;5075402;28;19958;-80
2021/10/11 06:13:03;;;;;;;;;;;;;;;2.61;74.71;97311.13;5075238;28;19986;-80
2021/10/11 06:15:29;;;;;;;;;;;;;;;2.78;74.37;97318.09;5074827;28;19951;-80
2021/10/11 06:17:55;;;;;;;;;;;;;;;3.12;79.29;97329.59;5073882;28;20057;-79
2021/10/11 06:20:21;;;;;;;;;;;;;;;3.60;79.95;97323.16;5075316;28;19998;-80
2021/10/11 06:22:47;;;;;;;;;;;;;;;4.04;78.73;97326.47;5074907;28;19983;-81
2021/10/11 06:25:13;;;;;;;;;;;;;;;4.45;77.70;97323.22;5074842;28;19954;-82
2021/10/11 06:27:39;;;;;;;;;;;;;;;4.80;76.43;97321.38;5075072;28;19952;-81
2021/10/11 06:30:06;;;;;;;;;;;;;;;5.06;75.14;97329.88;5074696;28;19959;-80
2021/10/11 06:32:32;;;;;;;;;;;;;;;5.26;74.52;97325.16;5074851;28;19974;-77
2021/10/11 06:34:58;;;;;;;;;;;;;;;5.34;69.97;97310.56;5075050;28;19996;-76
2021/10/11 06:37:24;;;;;;;;;;;;;;;5.34;69.21;97313.16;5074557;28;19961;-77
2021/10/11 06:39:50;;;;;;;;;;;;;;;5.32;68.84;97323.72;5074548;28;19961;-77
2021/10/11 06:42:16;;;;;;;;;;;;;;;5.31;68.47;97334.28;5074614;28;20007;-77
2021/10/11 06:44:42;;;;;;;;;;;;;;;5.12;68.80;97338.81;5074317;28;19962;-77
2021/10/11 06:47:08;;;;;;;;;;;;;;;5.00;69.11;97334.91;5074931;28;19959;-77
2021/10/11 06:49:34;;;;;;;;;;;;;;;4.92;69.67;97327.91;5074296;28;20419;-77
2021/10/11 06:52:00;;;;;;;;;;;;;;;4.81;70.09;97323.84;5073044;28;19984;-76
2021/10/11 06:54:26;;;;;;;;;;;;;;;4.74;70.38;97324.63;5074418;28;19969;-76
2021/10/11 06:56:52;;;;;;;;;;;;;;;4.77;70.31;97332.09;5074226;28;19958;-77
2021/10/11 06:59:18;;;;;;;;;;;;;;;4.82;70.63;97333.25;5072873;28;19961;-77
2021/10/11 07:01:44;;;;;;;;;;;;;;;4.96;70.73;97328.41;5073882;28;19962;-77
2021/10/11 07:04:10;;;;;;;;;;;;;;;5.14;70.71;97333.44;5074147;28;19955;-76
2021/10/11 07:06:36;;;;;;;;;;;;;;;5.34;69.86;97339.97;5074100;28;20320;-76
2021/10/11 07:09:02;;;;;;;;;;;;;;;5.40;69.91;97336.72;5073959;28;19961;-76
2021/10/11 07:11:28;;;;;;;;;;;;;;;5.42;69.62;97339.16;5074100;28;19956;-76
2021/10/11 07:13:54;;;;;;;;;;;;;;;5.45;69.21;97342.22;5073485;28;19967;-77
2021/10/11 07:16:20;;;;;;;;;;;;;;;5.50;69.04;97339.13;5074008;28;19956;-78
2021/10/11 07:18:46;;;;;;;;;;;;;;;5.64;68.66;97341.09;5073906;28;19992;-78
2021/10/11 07:21:12;;;;;;;;;;;;;;;5.78;68.34;97346.63;5073971;28;19953;-77
2021/10/11 07:23:37;;;;;;;;;;;;;;;5.75;67.84;97339.94;5073818;28;19963;-78
2021/10/11 07:26:04;;;;;;;;;;;;;;;5.63;68.19;97347.28;5073695;28;20045;-77
2021/10/11 07:28:30;;;;;;;;;;;;;;;5.65;69.16;97355.72;5073515;28;19954;-78
2021/10/11 07:30:57;;;;;;;;;;;;;;;5.75;69.17;97365.16;5073767;28;19948;-79
2021/10/11 07:33:23;;;;;;;;;;;;;;;5.92;69.06;97365.94;5072243;28;19970;-77
2021/10/11 07:35:49;;;;;;;;;;;;;;;6.03;68.84;97368.25;5073552;28;20408;-76
2021/10/11 07:38:15;;;;;;;;;;;;;;;6.13;68.33;97368.03;5073747;28;19958;-77
2021/10/11 07:40:41;;;;;;;;;;;;;;;6.27;68.48;97349.91;5073604;28;19952;-78
2021/10/11 07:43:07;;;;;;;;;;;;;;;6.40;68.73;97359.81;5073496;28;19961;-80
2021/10/11 07:45:33;;;;;;;;;;;;;;;6.34;68.39;97364.88;5073991;28;20010;-79
2021/10/11 07:47:59;;;;;;;;;;;;;;;6.26;68.53;97368.34;5073370;28;19956;-78
2021/10/11 07:50:25;;;;;;;;;;;;;;;6.31;69.36;97381.66;5072394;28;19961;-79
2021/10/11 07:52:51;;;;;;;;;;;;;;;6.30;68.51;97377.44;5073212;28;20038;-78
2021/10/11 07:55:17;;;;;;;;;;;;;;;6.32;70.12;97382.47;5073358;28;19967;-78
2021/10/11 07:57:43;;;;;;;;;;;;;;;6.37;69.34;97383.59;5073587;28;20047;-77
2021/10/11 08:00:11;;;;;;;;;;;;;;;6.49;69.64;97386.66;5073325;28;20442;-75
2021/10/11 08:02:37;;;;;;;;;;;;;;;6.55;69.00;97385.16;5073605;28;19956;-79
2021/10/11 08:05:03;;;;;;;;;;;;;;;6.65;69.50;97388.38;5073236;28;19949;-81
2021/10/11 08:07:29;;;;;;;;;;;;;;;6.80;68.63;97384.06;5073580;28;19961;-77
2021/10/11 08:09:55;;;;;;;;;;;;;;;6.93;69.14;97383.53;5073383;28;19947;-77
2021/10/11 08:12:21;;;;;;;;;;;;;;;6.98;68.61;97381.22;5073206;28;20003;-78
2021/10/11 08:14:47;;;;;;;;;;;;;;;7.02;68.97;97385.09;5073743;28;19967;-78
2021/10/11 08:17:13;;;;;;;;;;;;;;;7.02;68.40;97382.50;5073241;28;19959;-78
2021/10/11 08:19:39;;;;;;;;;;;;;;;6.95;68.96;97378.13;5073250;28;19956;-77
2021/10/11 08:22:05;;;;;;;;;;;;;;;6.90;69.51;97376.03;5073326;28;19959;-77
2021/10/11 08:24:31;;;;;;;;;;;;;;;6.85;69.42;97363.53;5073154;28;20048;-76
2021/10/11 08:26:57;;;;;;;;;;;;;;;6.90;70.31;97381.25;5074762;28;19961;-78
2021/10/11 08:29:23;;;;;;;;;;;;;;;7.02;70.07;97379.88;5077148;28;19962;-77
2021/10/11 08:31:49;;;;;;;;;;;;;;;7.17;69.24;97377.34;5076858;28;20371;-77
2021/10/11 08:34:14;;;;;;;;;;;;;;;7.24;70.25;97374.84;5076838;28;20064;-77
2021/10/11 08:36:40;;;;;;;;;;;;;;;7.23;69.79;97365.41;5077212;28;20038;-77
2021/10/11 08:39:06;;;;;;;;;;;;;;;7.22;69.43;97369.00;5076833;28;20413;-77
2021/10/11 08:41:32;;;;;;;;;;;;;;;7.29;70.02;97372.56;5076660;28;19953;-76
2021/10/11 08:43:58;;;;;;;;;;;;;;;7.37;69.49;97374.28;5077100;28;19965;-77
2021/10/11 08:46:24;;;;;;;;;;;;;;;7.47;69.83;97369.63;5076699;28;19965;-77
2021/10/11 08:48:50;;;;;;;;;;;;;;;7.58;69.44;97377.06;5076677;28;19949;-76
2021/10/11 08:51:16;;;;;;;;;;;;;;;7.66;69.63;97376.97;5076911;28;19963;-77
2021/10/11 08:53:42;;;;;;;;;;;;;;;7.69;69.16;97378.44;5076287;28;19976;-76
2021/10/11 08:56:13;;;;;;;;;;;;;;;7.77;70.18;97377.53;5076381;28;20419;-77
2021/10/11 08:58:46;;;;;;;;;;;;;;;7.86;69.43;97368.66;5076832;28;19972;-76
2021/10/11 09:01:12;;;;;;;;;;;;;;;7.91;69.97;97372.34;5076321;28;20411;-76
2021/10/11 09:03:38;;;;;;;;;;;;;;;8.00;70.01;97369.66;5076606;28;19959;-76
2021/10/11 09:06:06;;;;;;;;;;;;;;;8.15;70.14;97375.72;5076473;28;19960;-77
2021/10/11 09:08:33;;;;;;;;;;;;;;;8.21;69.03;97369.78;5076001;28;19953;-77
2021/10/11 09:11:00;;;;;;;;;;;;;;;8.31;69.46;97374.72;5076770;28;19961;-76
2021/10/11 09:13:26;;;;;;;;;;;;;;;8.45;68.91;97362.69;5076285;28;19986;-77
2021/10/11 09:16:09;;;;;;;;;;;;;;;8.58;68.50;97356.81;5075946;28;20415;-76
2021/10/11 09:18:37;;;;;;;;;;;;;;;8.64;68.23;97354.28;5076304;28;19968;-77
2021/10/11 09:21:03;;;;;;;;;;;;;;;8.63;68.27;97359.69;5076446;28;19959;-77
2021/10/11 09:23:30;;;;;;;;;;;;;;;8.63;68.04;97350.06;5076458;28;20010;-76
2021/10/11 09:25:57;;;;;;;;;;;;;;;8.64;69.09;97356.88;5076034;28;19957;-76
2021/10/11 09:28:25;;;;;;;;;;;;;;;8.72;69.32;97362.00;5076239;28;19963;-77
2021/10/11 09:30:51;;;;;;;;;;;;;;;8.80;68.73;97360.28;5076043;28;19970;-77
2021/10/11 09:33:18;;;;;;;;;;;;;;;8.87;68.61;97359.38;5075883;28;19972;-77
2021/10/11 09:35:45;;;;;;;;;;;;;;;8.90;68.29;97355.56;5076033;28;19955;-77
2021/10/11 09:38:18;;;;;;;;;;;;;;;8.89;67.60;97359.19;5075539;28;19958;-77
2021/10/11 09:40:44;;;;;;;;;;;;;;;8.90;68.47;97364.25;5075669;28;19948;-77
2021/10/11 09:43:14;;;;;;;;;;;;;;;9.09;74.45;97360.22;5075833;28;19959;-75
2021/10/11 09:45:40;;;;;;;;;;;;;;;9.57;76.74;97362.25;5075043;28;19946;-75
2021/10/11 09:48:07;;;;;;;;;;;;;;;10.14;73.71;97344.72;5075581;28;19955;-75
2021/10/11 09:50:33;;;;;;;;;;;;;;;10.67;70.26;97337.16;5076243;28;19963;-77
2021/10/11 09:52:59;;;;;;;;;;;;;;;10.83;65.99;97316.81;5075214;28;19988;-78
2021/10/11 09:55:25;;;;;;;;;;;;;;;10.80;65.12;97314.59;5075572;28;19960;-77
2021/10/11 09:57:51;;;;;;;;;;;;;;;10.61;64.52;97309.09;5075274;28;19963;-77
2021/10/11 10:00:17;;;;;;;;;;;;;;;10.39;65.23;97324.13;5075345;28;19961;-78
2021/10/11 10:02:46;;;;;;;;;;;;;;;10.28;65.51;97316.78;5075189;28;20352;-77
2021/10/11 10:05:35;;;;;;;;;;;;;;;10.26;66.06;97324.84;5075536;28;20401;-79
2021/10/11 10:08:06;;;;;;;;;;;;;;;10.28;66.78;97317.59;5075371;28;19968;-77
2021/10/11 10:10:33;;;;;;;;;;;;;;;10.39;67.43;97320.69;5075383;28;20406;-77
2021/10/11 10:12:59;;;;;;;;;;;;;;;10.51;66.56;97321.75;5075070;28;19959;-77
2021/10/11 10:15:32;;;;;;;;;;;;;;;10.59;66.10;97321.59;5075115;28;19963;-78
2021/10/11 10:17:58;;;;;;;;;;;;;;;10.65;66.73;97326.06;5074021;28;19959;-77
2021/10/11 10:20:24;;;;;;;;;;;;;;;10.73;65.64;97312.78;5074782;28;19957;-77
2021/10/11 10:22:51;;;;;;;;;;;;;;;10.85;65.42;97315.59;5074760;28;20050;-77
2021/10/11 10:25:17;;;;;;;;;;;;;;;10.96;63.96;97299.31;5059220;28;19955;-77
2021/10/11 10:27:44;;;;;;;;;;;;;;;11.00;63.25;97283.94;5075031;28;19965;-77
2021/10/11 10:30:19;;;;;;;;;;;;;;;11.08;65.71;97309.22;5074591;28;19961;-77
2021/10/11 10:33:01;;;;;;;;;;;;;;;11.25;65.68;97297.31;5074771;28;19953;-77
2021/10/11 10:35:28;;;;;;;;;;;;;;;11.41;62.49;97272.47;5074921;28;19959;-77
2021/10/11 10:37:54;;;;;;;;;;;;;;;11.50;62.54;97279.13;5074561;28;20334;-76
2021/10/11 10:40:24;;;;;;;;;;;;;;;11.57;62.92;97284.41;5074485;28;19961;-76
2021/10/11 10:42:50;;;;;;;;;;;;;;;11.69;64.29;97295.88;5074659;28;19955;-78
2021/10/11 10:45:20;;;;;;;;;;;;;;;11.85;62.69;97278.09;5074416;28;19963;-79
2021/10/11 10:47:49;;;;;;;;;;;;;;;11.97;61.50;97273.84;5074534;28;19958;-79
2021/10/11 10:50:16;;;;;;;;;;;;;;;12.06;62.04;97279.69;5073801;28;19958;-78
2021/10/11 10:52:46;;;;;;;;;;;;;;;12.15;61.04;97262.66;5073881;28;19994;-78
2021/10/11 10:55:12;;;;;;;;;;;;;;;12.17;61.14;97252.75;5074179;28;19977;-78
2021/10/11 10:57:38;;;;;;;;;;;;;;;12.17;60.00;97248.28;5074400;28;19961;-76
2021/10/11 11:00:05;;;;;;;;;;;;;;;12.26;61.65;97258.56;5074129;28;19961;-76
2021/10/11 11:02:31;;;;;;;;;;;;;;;12.50;61.85;97260.50;5074208;28;20029;-76
2021/10/11 11:04:59;;;;;;;;;;;;;;;12.69;60.05;97239.56;5074161;28;19962;-76
2021/10/11 11:07:26;;;;;;;;;;;;;;;12.87;59.73;97237.03;5074159;28;19960;-76
2021/10/11 11:09:52;;;;;;;;;;;;;;;13.00;59.19;97231.66;5074569;28;19950;-76
2021/10/11 11:12:26;;;;;;;;;;;;;;;13.04;59.01;97218.88;5074018;28;20422;-76
2021/10/11 11:14:52;;;;;;;;;;;;;;;13.12;60.63;97244.13;5073947;28;19977;-76
2021/10/11 11:17:26;;;;;;;;;;;;;;;13.17;60.04;97234.56;5074002;28;20006;-76
2021/10/11 11:19:52;;;;;;;;;;;;;;;13.19;59.39;97234.38;5073675;28;20315;-76
2021/10/11 11:22:26;;;;;;;;;;;;;;;13.19;59.68;97226.47;5073983;28;20050;-76
2021/10/11 11:24:52;;;;;;;;;;;;;;;13.24;58.65;97217.91;5073790;28;19966;-75
2021/10/11 11:27:28;;;;;;;;;;;;;;;13.27;59.09;97209.56;5073829;28;19962;-76
2021/10/11 11:29:55;;;;;;;;;;;;;;;13.25;59.27;97212.44;5073700;28;19981;-76
2021/10/11 11:32:20;;;;;;;;;;;;;;;13.34;59.72;97213.78;5073876;28;19971;-76
2021/10/11 11:34:46;;;;;;;;;;;;;;;13.45;59.03;97209.63;5073464;28;20070;-76
2021/10/11 11:37:12;;;;;;;;;;;;;;;13.53;58.69;97206.72;5073676;28;19961;-75
2021/10/11 11:39:38;;;;;;;;;;;;;;;13.56;53.90;97155.41;5073760;28;19968;-75
2021/10/11 11:42:04;;;;;;;;;;;;;;;13.48;56.09;97172.34;5073578;28;20001;-75
2021/10/11 11:44:30;;;;;;;;;;;;;;;13.45;56.71;97180.66;5073816;28;19959;-75
2021/10/11 11:47:00;;;;;;;;;;;;;;;13.45;55.00;97172.75;5073448;28;19981;-75
2021/10/11 11:49:26;;;;;;;;;;;;;;;13.48;56.80;97188.16;5073317;28;20432;-75
2021/10/11 11:52:02;;;;;;;;;;;;;;;13.54;57.05;97195.19;5073433;28;19987;-75
2021/10/11 11:54:28;;;;;;;;;;;;;;;13.60;55.13;97177.66;5073439;28;19979;-75
2021/10/11 11:56:54;;;;;;;;;;;;;;;13.64;56.69;97185.94;5073636;28;20420;-75
2021/10/11 11:59:21;;;;;;;;;;;;;;;13.70;57.19;97190.34;5073401;28;20413;-75
2021/10/11 12:01:47;;;;;;;;;;;;;;;13.72;56.57;97180.38;5076253;28;19966;-75
2021/10/11 12:04:13;;;;;;;;;;;;;;;13.74;57.37;97181.78;5077517;28;19953;-74
2021/10/11 12:06:39;;;;;;;;;;;;;;;13.77;58.22;97196.34;5077502;28;19959;-75
2021/10/11 12:09:05;;;;;;;;;;;;;;;13.79;57.13;97178.47;5077741;28;19952;-74
2021/10/11 12:11:31;;;;;;;;;;;;;;;13.84;55.53;97159.34;5077382;28;19958;-75
2021/10/11 12:13:59;;;;;;;;;;;;;;;13.87;55.65;97165.00;5077217;28;19967;-74
2021/10/11 12:16:26;;;;;;;;;;;;;;;13.93;55.56;97158.03;5077479;28;19953;-75
2021/10/11 12:18:53;;;;;;;;;;;;;;;13.96;54.41;97150.50;5077312;28;19966;-75
2021/10/11 12:21:21;;;;;;;;;;;;;;;13.91;56.14;97166.16;5077379;28;19959;-74
2021/10/11 12:23:47;;;;;;;;;;;;;;;13.93;54.91;97155.41;5077260;28;19965;-74
2021/10/11 12:26:13;;;;;;;;;;;;;;;13.99;57.02;97165.88;5077216;28;20306;-75
2021/10/11 12:28:52;;;;;;;;;;;;;;;14.09;56.92;97175.91;5076990;28;19962;-75
2021/10/11 12:31:19;;;;;;;;;;;;;;;14.05;57.58;97172.09;5077085;28;19954;-75
2021/10/11 12:33:45;;;;;;;;;;;;;;;14.01;56.07;97158.53;5077235;28;19971;-74
2021/10/11 12:36:12;;;;;;;;;;;;;;;14.02;57.04;97161.97;5076970;28;19963;-75
2021/10/11 12:38:40;;;;;;;;;;;;;;;13.98;54.68;97137.06;5076678;28;19968;-75
2021/10/11 12:41:16;;;;;;;;;;;;;;;13.91;55.13;97152.97;5077017;28;20406;-75
2021/10/11 12:43:56;;;;;;;;;;;;;;;13.83;57.19;97168.31;5064154;28;19953;-75
2021/10/11 12:46:22;;;;;;;;;;;;;;;13.84;57.12;97173.38;5077144;28;19958;-75
2021/10/11 12:48:50;;;;;;;;;;;;;;;13.89;56.15;97160.31;5076916;28;19967;-75
2021/10/11 12:51:25;;;;;;;;;;;;;;;13.95;55.20;97161.28;5076435;28;19971;-75
2021/10/11 12:53:58;;;;;;;;;;;;;;;13.89;56.59;97167.44;5077190;28;19983;-75